Ana Sayfa
METAR-TAF:

METAR-TAF

Havaalanları :

Cotulla, Teksas, Amerika Birleşik Devletleri

Enlem: 28-27-30N, Boylam: 099-13-13W, yükseklik: 145 m

Güncel hava durumu gözlemi

Rapor saat 10:53 UTC de 1 saat ve 0 dakika önce yapıldı.
Sakin rüzgar
Sıcaklık 24°C
Nem 94%
Basınç 1016 hPa
Görüş mesafesi: 16.1 km
1300 ft yükseklikte çok bulutlu

METAR: KCOT 261053Z AUTO 00000KT 10SM OVC013 24/23 A2999 RMK AO2 SLP148 T02440228

Saat: 06:53 (11:53 UTC)

Tahmin

Rapor saat 11:21 UTC de 32 dakika önce yapıldı.
Ayın 26'si saat 12 UTC'den ayın 27'si saat 12 UTC'ye kadar geçerli Tahmin
Rüzgar güneydoğudan 10 kt
Görüş mesafesi: 10 km
1300 ft yükseklikte çok bulutlu
Ayın 26'si saat 1500 UTC'den
Rüzgar güneydoğudan 12 kt
Görüş mesafesi: 10 km
7000 ft yükseklikte parçalı çok bulutlu

TAF: KCOT 261121Z 2612/2712 14010KT P6SM OVC013 FM261500 14012KT P6SM BKN070

4.000'den fazla havaalanı için hava durumu gözlemleri ve tahminleri (METAR ve TAF raporları).

Kullanılabilir istasyonlar harita üzerinde sarı ve kırmızı noktalarla gösterilir.

İstasyonun adını görmek için fareyi noktanın üzerinde gezdirin.

Sonrasında hava gözlem ve tahminlerini görmek için tıklayın.

Haritayı değiştirmek için: yaklaştırmak için siyah artı işaretli yeşil düğmeye ve uzaklaştırmak için de eksi işaretli düğmeye hızla tıklayın; bitişik haritalar için yeşil okları kullanın.


METAR-TAF: